X  Close Metar Aviation Weather Data     EBBR Brussels Airport
Temperature
10°C Temperature
8°C Dewpoint
88% Humidity



Wind
11 KM/H
7 MPH
3 M/S
6 KTS



200°
SSW
Current Conditions

Clear Clear
Pressure 1010.92 (hPa) - 29.85 (inHg)
Visibility 6.2 (mile) - 10 (km)
Airport
Airport-code EBBR

Location: Brussels Airport
Distance: 14 (km)

Metar:
EBBR 120050Z 20006KT CAVOK 10/08 Q1011 NOSIG

Time: 12-05-2021 02:50 CEST